Time;durP1;ratioP1;P1;durP2;ratioP2;P2;SDS_P1;SDS_P2;PMS_P1;PMS_P2;Temp;Humidity;BMP_temperature;BMP_pressure;BME280_temperature;BME280_humidity;BME280_pressure;Samples;Min_cycle;Max_cycle;Signal;HPM_P1;HPM_P2
2023/06/26 00:01:42;;;;;;;26.30;18.98;;;;;;;29.06;73.64;100631.31;5058994;28;68127;-44
2023/06/26 00:04:14;;;;;;;29.25;20.05;;;;;;;28.93;76.74;100629.44;5059953;28;70083;-44
2023/06/26 00:06:45;;;;;;;31.58;19.30;;;;;;;28.89;77.70;100630.06;5059714;28;66373;-46
2023/06/26 00:09:16;;;;;;;26.55;20.33;;;;;;;29.03;78.31;100642.53;5056720;28;70312;-44
2023/06/26 00:11:47;;;;;;;22.50;20.07;;;;;;;29.01;78.41;100646.47;5057548;28;65716;-44
2023/06/26 00:14:20;;;;;;;46.90;20.90;;;;;;;28.99;79.21;100645.84;5057412;28;70725;-42
2023/06/26 00:16:51;;;;;;;51.25;22.80;;;;;;;29.08;78.30;100639.19;5059021;28;66292;-46
2023/06/26 00:19:23;;;;;;;39.85;22.23;;;;;;;29.07;78.37;100648.34;5036152;28;70107;-45
2023/06/26 00:21:54;;;;;;;26.87;20.70;;;;;;;29.02;79.01;100640.00;5042628;28;65832;-46
2023/06/26 00:24:25;;;;;;;30.80;20.02;;;;;;;28.99;78.36;100626.94;5042194;28;70150;-45
2023/06/26 00:26:56;;;;;;;27.33;20.47;;;;;;;29.14;78.20;100649.13;5040638;28;65803;-44
2023/06/26 00:29:27;;;;;;;29.15;21.52;;;;;;;29.12;78.14;100653.94;5042321;28;70168;-44
2023/06/26 00:31:59;;;;;;;24.70;19.97;;;;;;;28.96;77.71;100620.91;5036301;28;66444;-43
2023/06/26 00:34:30;;;;;;;35.33;20.70;;;;;;;29.13;78.17;100642.06;5033356;28;72023;-49
2023/06/26 00:37:00;;;;;;;26.98;20.15;;;;;;;29.33;77.05;100675.22;5036561;28;66491;-48
2023/06/26 00:39:33;;;;;;;27.63;16.73;;;;;;;29.38;77.15;100667.31;5036539;28;69349;-45
2023/06/26 00:42:04;;;;;;;;;;;;;;;29.25;76.52;100672.75;5038516;28;66368;-48
2023/06/26 00:44:37;;;;;;;22.50;15.60;;;;;;;29.28;76.00;100648.03;5038647;28;70218;-47
2023/06/26 00:47:09;;;;;;;22.02;14.98;;;;;;;29.42;75.89;100664.16;5038747;28;66208;-47
2023/06/26 00:49:40;;;;;;;33.58;15.73;;;;;;;29.61;75.31;100687.56;5036142;28;69404;-49
2023/06/26 00:52:11;;;;;;;19.73;13.77;;;;;;;29.67;75.19;100692.16;5037983;28;66452;-49
2023/06/26 00:54:42;;;;;;;27.65;12.38;;;;;;;29.77;73.59;100683.56;5038493;28;70111;-49
2023/06/26 00:57:13;;;;;;;11.68;10.38;;;;;;;29.68;72.45;100668.66;5040547;28;67290;-48
2023/06/26 00:59:44;;;;;;;12.00;9.82;;;;;;;29.83;71.59;100683.50;5039006;28;70189;-48
2023/06/26 01:02:17;;;;;;;14.73;10.57;;;;;;;29.88;71.21;100692.84;5038045;28;66319;-50
2023/06/26 01:04:53;;;;;;;11.05;10.00;;;;;;;29.43;71.55;100614.50;5034164;28;70598;-47
2023/06/26 01:07:24;;;;;;;10.50;9.45;;;;;;;29.49;70.91;100629.84;5041795;28;66958;-48
2023/06/26 01:09:56;;;;;;;11.13;10.05;;;;;;;29.82;70.82;100679.16;5039170;28;70599;-48
2023/06/26 01:12:27;;;;;;;10.90;9.30;;;;;;;29.54;70.39;100625.44;5034794;28;65326;-47
2023/06/26 01:14:59;;;;;;;10.27;9.23;;;;;;;30.06;70.82;100701.03;5035150;28;71693;-48
2023/06/26 01:17:31;;;;;;;10.30;9.60;;;;;;;29.93;70.55;100676.81;5039426;28;66205;-47
2023/06/26 01:20:09;;;;;;;10.23;9.32;;;;;;;30.04;70.22;100682.31;5015123;28;71110;-46
2023/06/26 01:22:45;;;;;;;10.20;9.30;;;;;;;29.65;70.30;100629.34;5037177;28;65762;-46
2023/06/26 01:25:41;;;;;;;9.27;8.55;;;;;;;30.11;70.83;100708.50;5036921;28;69986;-49
2023/06/26 01:28:17;;;;;;;9.88;9.07;;;;;;;30.10;69.88;100699.56;5038312;28;65842;-47
2023/06/26 01:30:49;;;;;;;10.73;9.65;;;;;;;30.14;70.01;100689.94;5048607;28;69486;-49
2023/06/26 01:33:21;;;;;;;10.95;9.32;;;;;;;30.06;70.08;100682.09;5035834;28;65848;-49
2023/06/26 01:35:53;;;;;;;10.30;9.40;;;;;;;30.32;69.60;100710.03;5036738;28;69634;-48
2023/06/26 01:38:25;;;;;;;10.15;9.45;;;;;;;30.18;69.55;100688.47;5039967;28;66977;-47
2023/06/26 01:40:59;;;;;;;9.73;9.02;;;;;;;30.38;69.24;100711.84;5036855;28;70506;-46
2023/06/26 01:43:51;;;;;;;9.50;8.82;;;;;;;29.33;69.28;100540.13;5038128;28;66519;-48
2023/06/26 01:46:25;;;;;;;;;;;;;;;30.10;70.88;100717.66;5039210;28;70126;-49
2023/06/26 01:49:20;;;;;;;8.93;8.35;;;;;;;29.96;69.54;100638.50;5038431;28;66799;-46
2023/06/26 01:52:16;;;;;;;9.38;8.68;;;;;;;30.36;68.64;100689.59;5039673;28;69490;-48
2023/06/26 01:55:05;;;;;;;10.02;9.27;;;;;;;30.41;68.72;100708.72;5038408;28;65755;-48
2023/06/26 01:57:38;;;;;;;8.57;8.07;;;;;;;30.45;68.76;100708.06;5035367;28;69806;-49
2023/06/26 02:00:11;;;;;;;9.48;8.68;;;;;;;30.59;68.19;100727.72;5033697;28;66428;-47
2023/06/26 02:02:42;;;;;;;8.85;8.15;;;;;;;30.61;68.39;100717.47;5033284;28;69105;-46
2023/06/26 02:05:15;;;;;;;10.52;9.07;;;;;;;30.63;68.26;100720.78;5049200;28;66507;-46
2023/06/26 02:07:47;;;;;;;8.93;8.40;;;;;;;30.65;68.19;100721.41;5033772;28;70468;-49
2023/06/26 02:10:18;;;;;;;8.02;7.55;;;;;;;30.64;67.81;100719.72;5034752;28;66268;-46
2023/06/26 02:12:50;;;;;;;8.68;8.07;;;;;;;30.65;68.13;100721.41;5039877;28;69667;-48
2023/06/26 02:15:21;;;;;;;8.45;7.82;;;;;;;30.70;67.72;100724.28;5040471;28;67051;-46
2023/06/26 02:17:53;;;;;;;8.68;7.97;;;;;;;30.74;67.97;100721.94;5039026;28;69594;-48
2023/06/26 02:20:24;;;;;;;7.70;6.95;;;;;;;30.77;67.48;100713.38;5056881;28;65859;-47
2023/06/26 02:22:55;;;;;;;7.85;7.25;;;;;;;30.75;67.23;100701.09;5059032;28;70303;-48
2023/06/26 02:25:26;;;;;;;7.82;7.43;;;;;;;30.82;67.08;100715.44;5060385;28;65536;-49
2023/06/26 02:27:57;;;;;;;7.37;6.90;;;;;;;30.77;67.08;100707.94;5040845;28;70307;-48
2023/06/26 02:30:28;;;;;;;7.47;6.90;;;;;;;30.75;67.15;100687.56;5057903;28;66442;-47
2023/06/26 02:33:01;;;;;;;7.60;7.10;;;;;;;30.90;67.05;100712.44;5053965;28;70331;-46
2023/06/26 02:35:32;;;;;;;7.20;6.80;;;;;;;30.90;66.69;100713.28;5035932;28;65635;-48
2023/06/26 02:38:04;;;;;;;7.10;6.70;;;;;;;30.86;67.03;100705.81;5053786;28;68833;-47
2023/06/26 02:40:35;;;;;;;7.88;7.15;;;;;;;30.97;66.73;100710.47;5055017;28;65821;-46
2023/06/26 02:43:06;;;;;;;;;;;;;;;30.72;67.46;100710.50;5044801;28;70424;-48
2023/06/26 02:45:37;;;;;;;7.97;7.28;;;;;;;31.02;66.67;100710.63;5054182;28;66567;-46
2023/06/26 02:48:09;;;;;;;7.40;6.97;;;;;;;31.05;66.33;100712.91;5052718;28;70698;-47
2023/06/26 02:50:41;;;;;;;7.57;6.97;;;;;;;31.10;66.14;100707.63;5047464;28;66838;-47
2023/06/26 02:53:16;;;;;;;7.57;7.07;;;;;;;31.13;65.88;100709.88;5028361;28;70353;-48
2023/06/26 02:55:48;;;;;;;7.63;7.13;;;;;;;31.18;65.95;100720.06;5035338;28;66437;-47
2023/06/26 02:58:20;;;;;;;7.75;6.93;;;;;;;31.21;65.84;100718.78;5035161;28;70714;-46
2023/06/26 03:00:53;;;;;;;7.95;7.35;;;;;;;31.25;65.78;100722.66;5029866;28;65543;-47
2023/06/26 03:03:24;;;;;;;7.05;6.57;;;;;;;31.28;65.58;100714.09;5027811;28;70740;-46
2023/06/26 03:05:56;;;;;;;6.88;6.47;;;;;;;31.31;65.35;100719.06;5048192;28;66317;-45
2023/06/26 03:08:29;;;;;;;6.95;6.55;;;;;;;31.36;65.36;100721.94;5034199;28;70271;-46
2023/06/26 03:11:00;;;;;;;7.47;6.97;;;;;;;31.36;65.15;100716.53;5035165;28;66135;-48
2023/06/26 03:13:32;;;;;;;;;;;;;;;30.69;65.74;100652.22;5036662;28;70025;-46
2023/06/26 03:16:04;;;;;;;6.72;6.32;;;;;;;31.43;65.17;100721.88;5045847;28;66906;-47
2023/06/26 03:18:34;;;;;;;;;;;;;;;31.17;65.45;100724.66;5053478;28;69630;-46
2023/06/26 03:21:06;;;;;;;7.18;6.63;;;;;;;31.50;64.98;100728.03;5014737;28;66231;-46
2023/06/26 03:23:39;;;;;;;6.85;6.38;;;;;;;31.55;64.45;100725.47;5055942;28;69527;-46
2023/06/26 03:26:11;;;;;;;6.47;6.03;;;;;;;31.43;64.41;100694.78;5037304;28;66374;-47
2023/06/26 03:28:42;;;;;;;6.45;6.05;;;;;;;31.55;64.71;100715.44;5042801;28;70594;-48
2023/06/26 03:31:13;;;;;;;6.23;5.87;;;;;;;31.64;64.59;100723.25;5059298;28;66637;-47
2023/06/26 03:33:45;;;;;;;6.15;5.65;;;;;;;31.66;64.09;100730.13;5061573;28;70559;-46
2023/06/26 03:36:16;;;;;;;6.80;6.30;;;;;;;31.69;64.42;100726.94;5055470;28;67502;-45
2023/06/26 03:38:47;;;;;;;7.18;6.68;;;;;;;31.71;64.23;100718.59;5061976;28;70180;-46
2023/06/26 03:41:18;;;;;;;6.57;6.00;;;;;;;31.74;64.30;100718.13;5042659;28;66488;-46
2023/06/26 03:43:50;;;;;;;6.50;6.00;;;;;;;31.76;64.23;100714.13;5044970;28;70785;-48
2023/06/26 03:46:23;;;;;;;5.63;5.22;;;;;;;31.73;64.19;100700.19;5044563;28;65621;-46
2023/06/26 03:48:54;;;;;;;6.13;5.77;;;;;;;31.79;63.97;100702.81;5060652;28;70923;-50
2023/06/26 03:51:25;;;;;;;6.20;5.60;;;;;;;31.80;64.03;100701.75;5058447;28;66579;-49
2023/06/26 03:53:57;;;;;;;6.03;5.63;;;;;;;31.77;64.06;100695.97;5060278;28;70023;-46
2023/06/26 03:56:28;;;;;;;6.70;6.22;;;;;;;31.80;63.87;100687.34;5036767;28;66007;-48
2023/06/26 03:59:00;;;;;;;6.38;5.97;;;;;;;31.83;63.69;100682.28;5057772;28;70752;-46
2023/06/26 04:01:30;;;;;;;5.57;5.17;;;;;;;31.88;63.61;100687.03;5064789;28;65645;-46
2023/06/26 04:04:02;;;;;;;6.55;6.05;;;;;;;31.95;63.67;100695.09;5062046;28;69924;-46
2023/06/26 04:06:34;;;;;;;6.47;5.88;;;;;;;31.79;63.62;100661.31;5039387;28;66269;-46
2023/06/26 04:09:05;;;;;;;5.40;5.10;;;;;;;31.95;63.51;100676.91;5060536;28;70290;-47
2023/06/26 04:11:36;;;;;;;5.87;5.47;;;;;;;32.01;63.26;100681.44;5041018;28;67042;-48
2023/06/26 04:14:07;;;;;;;6.53;5.22;;;;;;;32.03;63.17;100690.16;5043156;28;70018;-46
2023/06/26 04:16:38;;;;;;;5.97;5.33;;;;;;;32.05;63.30;100681.78;5061016;28;66710;-46
2023/06/26 04:19:10;;;;;;;4.83;4.53;;;;;;;32.08;63.19;100683.22;5060219;28;70597;-46
2023/06/26 04:21:41;;;;;;;;;;;;;;;31.77;63.78;100675.09;5059846;28;65803;-45
2023/06/26 04:24:12;;;;;;;5.15;4.80;;;;;;;31.97;63.05;100647.69;5059902;28;70371;-47
2023/06/26 04:26:45;;;;;;;5.82;5.30;;;;;;;31.90;63.21;100629.81;5059674;28;67147;-46
2023/06/26 04:29:16;;;;;;;4.60;4.30;;;;;;;32.11;63.10;100651.00;5064511;28;70033;-47
2023/06/26 04:31:47;;;;;;;5.80;5.40;;;;;;;32.11;63.10;100640.16;5060372;28;66694;-46
2023/06/26 04:34:18;;;;;;;5.60;5.20;;;;;;;32.10;63.42;100643.13;5063506;28;69508;-46
2023/06/26 04:36:50;;;;;;;5.70;5.07;;;;;;;32.00;62.92;100614.66;5058907;28;66373;-47
2023/06/26 04:39:22;;;;;;;4.90;4.60;;;;;;;32.19;63.03;100625.41;5055096;28;70270;-46
2023/06/26 04:41:53;;;;;;;5.22;4.82;;;;;;;32.17;62.76;100630.25;5059995;28;65670;-47
2023/06/26 04:44:24;;;;;;;4.68;4.38;;;;;;;32.17;63.01;100612.06;5058951;28;70625;-47
2023/06/26 04:46:54;;;;;;;5.20;4.80;;;;;;;32.20;62.66;100608.06;5057096;28;67633;-46
2023/06/26 04:49:27;;;;;;;5.50;5.00;;;;;;;32.21;62.40;100598.88;5056885;28;70641;-47
2023/06/26 04:52:00;;;;;;;4.85;4.43;;;;;;;32.25;62.68;100594.63;5059480;28;66308;-48
2023/06/26 04:54:31;;;;;;;4.93;4.55;;;;;;;32.27;62.59;100587.06;5058589;28;70069;-46
2023/06/26 04:57:02;;;;;;;5.67;5.27;;;;;;;32.24;62.52;100582.13;5054818;28;65369;-47
2023/06/26 04:59:33;;;;;;;5.15;4.68;;;;;;;32.26;62.57;100586.25;5059705;28;70293;-48
2023/06/26 05:02:04;;;;;;;4.70;4.37;;;;;;;32.21;62.57;100574.44;5059585;28;67714;-46
2023/06/26 05:04:36;;;;;;;4.75;4.35;;;;;;;32.28;62.30;100573.25;5060012;28;69824;-47
2023/06/26 05:07:07;;;;;;;5.40;4.90;;;;;;;31.72;62.39;100476.97;5059643;28;66129;-46
2023/06/26 05:09:38;;;;;;;4.10;3.90;;;;;;;32.19;62.22;100530.44;5060471;28;71261;-47
2023/06/26 05:12:09;;;;;;;5.73;4.17;;;;;;;32.33;62.34;100542.69;5060552;28;66286;-46
2023/06/26 05:14:40;;;;;;;4.30;4.00;;;;;;;32.37;62.41;100549.28;5060550;28;70038;-48
2023/06/26 05:17:11;;;;;;;4.60;4.30;;;;;;;32.39;62.21;100547.16;5060675;28;66618;-48
2023/06/26 05:19:43;;;;;;;5.10;3.97;;;;;;;32.41;62.24;100538.78;5042871;28;69995;-46
2023/06/26 05:22:16;;;;;;;7.15;4.53;;;;;;;32.35;61.99;100518.84;5048640;28;65800;-48
2023/06/26 05:24:48;;;;;;;4.70;4.30;;;;;;;32.46;62.00;100528.88;5045981;28;69870;-47
2023/06/26 05:27:21;;;;;;;4.43;4.13;;;;;;;32.45;62.06;100529.91;5060106;28;65344;-47
2023/06/26 05:29:53;;;;;;;4.40;4.10;;;;;;;32.46;61.95;100530.78;5055391;28;69224;-46
2023/06/26 05:32:24;;;;;;;4.32;3.80;;;;;;;32.52;61.96;100531.72;5060923;28;66089;-46
2023/06/26 05:34:57;;;;;;;4.57;4.18;;;;;;;32.51;61.83;100527.31;5059744;28;69933;-47
2023/06/26 05:37:29;;;;;;;6.63;4.05;;;;;;;32.57;61.82;100538.06;5038546;28;66366;-46
2023/06/26 05:40:03;;;;;;;4.22;3.83;;;;;;;32.45;62.00;100512.78;5056328;28;69329;-47
2023/06/26 05:42:35;;;;;;;5.03;4.53;;;;;;;32.59;61.74;100530.50;5053801;28;66699;-46
2023/06/26 05:45:07;;;;;;;5.57;4.13;;;;;;;32.63;61.85;100536.28;5056959;28;70500;-47
2023/06/26 05:47:38;;;;;;;4.17;3.77;;;;;;;32.49;61.57;100520.25;5056635;28;67834;-48
2023/06/26 05:50:10;;;;;;;4.63;4.32;;;;;;;32.65;61.71;100523.28;5050305;28;69627;-49
2023/06/26 05:52:40;;;;;;;;;;;;;;;32.35;62.06;100507.16;5060301;28;66399;-49
2023/06/26 05:55:13;;;;;;;4.25;3.92;;;;;;;32.57;61.53;100491.06;5060916;28;70664;-45
2023/06/26 05:57:45;;;;;;;4.50;4.20;;;;;;;32.58;61.62;100479.97;5056622;28;66788;-45
2023/06/26 06:00:17;;;;;;;4.47;4.10;;;;;;;32.70;61.36;100485.34;5042198;28;69864;-46
2023/06/26 06:02:48;;;;;;;3.90;3.60;;;;;;;32.78;61.31;100495.00;5058285;28;66633;-46
2023/06/26 06:05:19;;;;;;;4.90;4.50;;;;;;;32.80;61.28;100482.84;5058737;28;70081;-48
2023/06/26 06:07:50;;;;;;;3.55;3.35;;;;;;;32.86;61.04;100494.63;5057652;28;66089;-47
2023/06/26 06:10:21;;;;;;;;;;;;;;;32.59;61.67;100497.09;5059126;28;70445;-48
2023/06/26 06:12:52;;;;;;;4.00;3.70;;;;;;;32.89;61.31;100492.25;5056222;28;67007;-46
2023/06/26 06:15:23;;;;;;;4.10;3.80;;;;;;;32.93;61.07;100482.56;5057637;28;70339;-47
2023/06/26 06:17:54;;;;;;;3.97;3.73;;;;;;;32.91;61.03;100462.13;5056606;28;66243;-48
2023/06/26 06:20:26;;;;;;;3.65;3.42;;;;;;;33.02;60.96;100479.47;5022486;28;70844;-48
2023/06/26 06:22:57;;;;;;;10.60;4.13;;;;;;;32.97;60.81;100463.03;5059155;28;65743;-47
2023/06/26 06:25:28;;;;;;;3.75;3.45;;;;;;;33.04;60.54;100461.00;5060804;28;69604;-49
2023/06/26 06:27:59;;;;;;;3.70;3.50;;;;;;;32.95;60.61;100436.09;5060696;28;65126;-48
2023/06/26 06:30:30;;;;;;;3.83;3.33;;;;;;;33.15;60.73;100457.41;5059758;28;69575;-52
2023/06/26 06:33:17;;;;;;;3.95;3.70;;;;;;;33.22;60.17;100441.75;5042874;28;66810;-48
2023/06/26 06:35:48;;;;;;;3.47;3.28;;;;;;;33.26;60.41;100442.09;5057892;28;70371;-49
2023/06/26 06:38:20;;;;;;;3.63;3.42;;;;;;;33.27;60.14;100433.69;5058753;28;66511;-48
2023/06/26 06:40:51;;;;;;;3.80;3.50;;;;;;;33.32;60.14;100431.06;5057734;28;71119;-49
2023/06/26 06:43:22;;;;;;;3.45;3.25;;;;;;;33.28;60.14;100418.19;5054708;28;66723;-48
2023/06/26 06:45:53;;;;;;;4.30;4.00;;;;;;;33.44;59.87;100432.88;5056349;28;70285;-49
2023/06/26 06:48:25;;;;;;;4.43;3.30;;;;;;;33.46;59.63;100436.13;5041941;28;66352;-47
2023/06/26 06:50:56;;;;;;;4.00;3.40;;;;;;;33.49;60.08;100427.47;5055666;28;70561;-48
2023/06/26 06:53:27;;;;;;;3.38;3.15;;;;;;;33.52;59.56;100429.72;5058649;28;66943;-47
2023/06/26 06:55:58;;;;;;;3.70;3.40;;;;;;;33.49;59.65;100412.00;5061337;28;70430;-48
2023/06/26 06:58:33;;;;;;;3.63;3.33;;;;;;;33.59;59.38;100409.44;5063110;28;65758;-46
2023/06/26 07:01:04;;;;;;;3.88;3.58;;;;;;;33.65;59.32;100402.19;5063737;27;69819;-48
2023/06/26 07:03:35;;;;;;;3.20;2.95;;;;;;;33.69;59.47;100397.91;5064510;28;66386;-48
2023/06/26 07:06:07;;;;;;;3.50;3.30;;;;;;;33.76;58.96;100403.97;5061452;28;69858;-48
2023/06/26 07:08:38;;;;;;;3.40;3.10;;;;;;;33.80;59.30;100394.25;5059112;28;65437;-48
2023/06/26 07:11:09;;;;;;;3.25;3.05;;;;;;;33.86;58.72;100402.47;5068800;28;69947;-47
2023/06/26 07:13:40;;;;;;;3.00;2.80;;;;;;;33.85;58.43;100392.66;5059757;28;66346;-48
2023/06/26 07:16:11;;;;;;;3.03;2.83;;;;;;;33.91;58.73;100381.59;5062001;28;70697;-47
2023/06/26 07:18:43;;;;;;;3.38;3.17;;;;;;;33.97;58.34;100387.94;5063648;28;66424;-47
2023/06/26 07:21:13;;;;;;;;;;;;;;;33.73;58.46;100381.91;5062275;28;70369;-47
2023/06/26 07:23:45;;;;;;;3.40;3.10;;;;;;;33.98;58.23;100370.53;5062679;28;66790;-49
2023/06/26 07:26:16;;;;;;;3.50;3.20;;;;;;;34.01;58.04;100373.53;5061930;28;69546;-47
2023/06/26 07:28:58;;;;;;;2.92;2.70;;;;;;;34.04;58.06;100361.34;5063988;28;66008;-47
2023/06/26 07:31:29;;;;;;;2.92;2.72;;;;;;;34.09;58.09;100355.16;5046191;28;69136;-47
2023/06/26 07:34:01;;;;;;;3.00;2.80;;;;;;;34.02;58.52;100341.75;5071031;28;65923;-47
2023/06/26 07:36:32;;;;;;;3.67;3.38;;;;;;;34.09;57.99;100358.72;5066142;28;70007;-48
2023/06/26 07:39:02;;;;;;;2.92;2.72;;;;;;;34.13;58.09;100348.97;5060722;28;66584;-49
2023/06/26 07:41:33;;;;;;;3.17;2.90;;;;;;;34.08;57.63;100329.84;5046639;28;69572;-48
2023/06/26 07:44:04;;;;;;;3.30;3.10;;;;;;;34.13;57.57;100335.38;5059410;28;66396;-47
2023/06/26 07:46:35;;;;;;;3.33;3.10;;;;;;;34.17;57.72;100331.03;5059896;28;70008;-51
2023/06/26 07:49:07;;;;;;;3.50;3.20;;;;;;;34.04;57.73;100312.34;5068138;28;66602;-48
2023/06/26 07:51:38;;;;;;;3.00;2.80;;;;;;;34.13;57.40;100316.31;5055442;28;69700;-48
2023/06/26 07:54:09;;;;;;;3.08;2.88;;;;;;;34.21;57.68;100317.72;5061903;28;66057;-49
2023/06/26 07:56:59;;;;;;;3.58;3.00;;;;;;;34.16;56.93;100321.25;5062686;28;70185;-48
2023/06/26 07:59:31;;;;;;;6.22;3.38;;;;;;;34.20;57.26;100294.31;5060205;28;66703;-48
2023/06/26 08:02:02;;;;;;;3.08;2.88;;;;;;;34.30;57.59;100309.91;5068161;28;69898;-49
2023/06/26 08:04:33;;;;;;;3.30;3.00;;;;;;;34.31;57.15;100300.69;5065355;28;67562;-48
2023/06/26 08:07:05;;;;;;;4.30;2.88;;;;;;;34.23;57.06;100282.91;5060395;28;70277;-49
2023/06/26 08:09:36;;;;;;;3.00;2.80;;;;;;;34.33;57.12;100303.97;5062799;28;65922;-50
2023/06/26 08:12:07;;;;;;;;;;;;;;;34.06;57.70;100293.91;5045657;28;70169;-47
2023/06/26 08:14:41;;;;;;;3.05;2.65;;;;;;;34.36;57.41;100292.56;5061330;28;65929;-49
2023/06/26 08:17:12;;;;;;;3.45;3.15;;;;;;;34.38;57.27;100291.25;5061513;28;70442;-49
2023/06/26 08:19:43;;;;;;;2.90;2.70;;;;;;;34.37;56.96;100294.22;5062742;28;65635;-49
2023/06/26 08:22:14;;;;;;;3.05;2.85;;;;;;;34.39;57.04;100308.38;5063731;28;69231;-48
2023/06/26 08:24:49;;;;;;;3.13;2.85;;;;;;;34.30;56.77;100282.69;5063434;28;43181;-47
2023/06/26 08:27:20;;;;;;;3.35;2.47;;;;;;;34.39;57.01;100300.22;5060234;28;71138;-48
2023/06/26 08:29:50;;;;;;;3.60;3.30;;;;;;;34.19;56.70;100288.06;5063219;28;66130;-46
2023/06/26 08:32:22;;;;;;;3.83;2.60;;;;;;;34.37;57.22;100299.66;5062570;28;69200;-48
2023/06/26 08:34:52;;;;;;;5.18;2.50;;;;;;;34.44;56.92;100319.34;5061957;28;66945;-47
2023/06/26 08:37:23;;;;;;;7.55;2.63;;;;;;;34.44;57.25;100322.06;5047599;28;70112;-49
2023/06/26 08:39:54;;;;;;;3.58;3.28;;;;;;;34.49;57.08;100327.53;5063876;28;65674;-51
2023/06/26 08:42:25;;;;;;;4.72;3.75;;;;;;;34.37;56.90;100307.81;5061191;28;70317;-48
2023/06/26 08:44:57;;;;;;;3.37;3.07;;;;;;;34.45;56.88;100312.81;5061222;28;65658;-48
2023/06/26 08:47:35;;;;;;;3.78;3.47;;;;;;;33.47;56.50;100163.19;5059033;28;70018;-47
2023/06/26 08:50:14;;;;;;;3.33;3.13;;;;;;;34.47;56.67;100327.81;5064272;28;66717;-50
2023/06/26 08:52:58;;;;;;;3.53;3.30;;;;;;;33.99;56.46;100257.88;5060036;28;70295;-49
2023/06/26 08:55:32;;;;;;;3.40;3.20;;;;;;;34.47;57.01;100326.97;5044531;28;65399;-50
2023/06/26 08:58:03;;;;;;;4.03;2.95;;;;;;;34.46;57.14;100336.22;5063564;28;69460;-49
2023/06/26 09:00:35;;;;;;;5.72;3.85;;;;;;;34.47;56.59;100337.88;5043603;28;66445;-49
2023/06/26 09:03:07;;;;;;;5.13;3.22;;;;;;;34.48;56.90;100358.56;5060258;28;70073;-47
2023/06/26 09:05:40;;;;;;;3.10;2.90;;;;;;;34.47;56.77;100365.13;5065631;28;65539;-48
2023/06/26 09:08:11;;;;;;;3.72;3.42;;;;;;;34.48;56.91;100378.44;5064762;28;69512;-48
2023/06/26 09:10:42;;;;;;;4.13;2.88;;;;;;;34.49;57.20;100379.28;5061748;28;66283;-49
2023/06/26 09:13:18;;;;;;;3.78;3.25;;;;;;;34.36;56.76;100364.19;5058636;28;69962;-48
2023/06/26 09:15:58;;;;;;;5.40;3.10;;;;;;;34.35;56.91;100368.00;5060627;28;65251;-50
2023/06/26 09:18:30;;;;;;;2.83;2.63;;;;;;;34.43;57.47;100396.63;5031013;28;69886;-48
2023/06/26 09:21:06;;;;;;;3.78;3.05;;;;;;;34.38;57.22;100380.25;5043246;28;65081;-47
2023/06/26 09:23:39;;;;;;;3.47;3.17;;;;;;;34.43;58.00;100400.19;5043364;28;70267;-48
2023/06/26 09:26:11;;;;;;;3.80;3.50;;;;;;;34.03;57.67;100332.47;5055878;28;66197;-48
2023/06/26 09:28:43;;;;;;;;;;;;;;;34.12;58.50;100406.38;5060887;28;69417;-48
2023/06/26 09:31:13;;;;;;;3.25;2.95;;;;;;;34.36;58.40;100401.47;5060073;28;66640;-48
2023/06/26 09:34:04;;;;;;;3.35;3.05;;;;;;;34.38;57.83;100391.13;5057365;28;70156;-47
2023/06/26 09:36:36;;;;;;;3.85;3.30;;;;;;;34.34;57.85;100382.66;5060063;28;64514;-48
2023/06/26 09:39:14;;;;;;;2.83;2.58;;;;;;;34.36;57.99;100391.41;5059787;28;70465;-49
2023/06/26 09:41:45;;;;;;;3.08;2.88;;;;;;;34.37;58.40;100386.78;5059469;28;66338;-47
2023/06/26 09:44:16;;;;;;;4.68;3.20;;;;;;;34.34;58.28;100392.75;5056304;28;69897;-49
2023/06/26 09:46:48;;;;;;;4.07;3.08;;;;;;;34.17;58.59;100380.03;5010028;28;65803;-49
2023/06/26 09:49:19;;;;;;;2.72;2.53;;;;;;;34.31;58.23;100409.59;5058109;28;69686;-48
2023/06/26 09:51:51;;;;;;;3.00;2.80;;;;;;;34.26;58.25;100397.53;5057991;28;66020;-47
2023/06/26 09:54:25;;;;;;;7.25;3.33;;;;;;;34.31;58.58;100404.16;5056130;28;70194;-49
2023/06/26 09:57:07;;;;;;;3.10;2.90;;;;;;;34.26;58.59;100397.53;5055927;28;65579;-47
2023/06/26 09:59:37;;;;;;;;;;;;;;;33.96;59.35;100418.91;5054877;28;69476;-48
2023/06/26 10:02:09;;;;;;;8.43;2.65;;;;;;;34.23;58.24;100419.84;5057475;28;65418;-50
2023/06/26 10:04:40;;;;;;;2.95;2.75;;;;;;;34.19;58.59;100423.34;5054877;28;69343;-49
2023/06/26 10:07:13;;;;;;;3.85;3.55;;;;;;;34.23;58.68;100447.06;5055990;28;65769;-48
2023/06/26 10:09:48;;;;;;;5.35;3.10;;;;;;;34.21;58.77;100446.50;5055476;28;69912;-47
2023/06/26 10:12:39;;;;;;;3.30;3.00;;;;;;;34.11;58.66;100454.53;5056737;28;66768;-47
2023/06/26 10:15:16;;;;;;;3.60;3.17;;;;;;;34.14;58.39;100436.88;5031525;28;70613;-47
2023/06/26 10:17:48;;;;;;;9.55;4.03;;;;;;;34.19;58.76;100451.38;5055509;28;66317;-49
2023/06/26 10:20:20;;;;;;;2.72;2.53;;;;;;;34.13;58.83;100437.94;5054048;28;70110;-49
2023/06/26 10:22:51;;;;;;;3.08;2.88;;;;;;;34.03;58.72;100442.16;5055238;28;66457;-49
2023/06/26 10:25:25;;;;;;;5.78;3.03;;;;;;;34.13;58.60;100451.56;5055624;28;69201;-47
2023/06/26 10:28:00;;;;;;;3.10;2.90;;;;;;;33.48;58.92;100349.72;5059090;28;66566;-49
2023/06/26 10:30:35;;;;;;;4.13;3.72;;;;;;;33.59;59.30;100404.00;5058679;28;69892;-49
2023/06/26 10:33:08;;;;;;;4.90;4.50;;;;;;;33.85;60.85;100466.13;5060170;28;66629;-48
2023/06/26 10:35:45;;;;;;;6.95;6.45;;;;;;;33.65;62.26;100451.16;5056387;28;69104;-47
2023/06/26 10:38:18;;;;;;;8.60;6.82;;;;;;;33.51;62.68;100441.66;5051708;28;66264;-50
2023/06/26 10:40:50;;;;;;;8.05;7.35;;;;;;;33.59;63.24;100466.56;5043141;28;71003;-47
2023/06/26 10:43:30;;;;;;;6.85;6.35;;;;;;;33.73;62.18;100469.75;5060270;28;66593;-49
2023/06/26 10:46:01;;;;;;;5.82;5.40;;;;;;;33.66;62.16;100452.81;5059869;28;70584;-48
2023/06/26 10:48:32;;;;;;;5.30;4.90;;;;;;;33.81;61.77;100477.50;5057639;28;65000;-49
2023/06/26 10:51:24;;;;;;;5.70;5.22;;;;;;;33.70;61.93;100470.25;5056422;28;69223;-49
2023/06/26 10:53:58;;;;;;;;;;;;;;;33.53;62.78;100461.31;5055108;28;66294;-48
2023/06/26 10:56:56;;;;;;;6.15;5.50;;;;;;;33.68;62.31;100466.97;5059433;28;70600;-49
2023/06/26 10:59:29;;;;;;;5.30;4.90;;;;;;;33.12;61.44;100360.88;5031637;28;65972;-48
2023/06/26 11:02:02;;;;;;;5.78;5.32;;;;;;;33.56;61.71;100428.19;5057165;28;70882;-49
2023/06/26 11:04:45;;;;;;;5.40;5.00;;;;;;;33.81;62.07;100460.38;5057381;28;66287;-48
2023/06/26 11:07:21;;;;;;;5.57;4.95;;;;;;;33.59;61.54;100431.22;5039119;28;70276;-48
2023/06/26 11:10:01;;;;;;;7.40;5.15;;;;;;;33.24;61.52;100385.25;5055501;28;66047;-48
2023/06/26 11:12:47;;;;;;;5.80;5.30;;;;;;;33.78;61.78;100485.34;5057311;28;70240;-50
2023/06/26 11:15:20;;;;;;;7.25;5.68;;;;;;;33.84;61.44;100478.09;5057344;28;66340;-48
2023/06/26 11:17:51;;;;;;;8.85;5.03;;;;;;;33.81;61.45;100476.69;5037386;28;70421;-49
2023/06/26 11:20:22;;;;;;;;;;;;;;;33.53;62.88;100480.34;5058671;28;66691;-48
2023/06/26 11:22:55;;;;;;;5.38;4.90;;;;;;;33.66;61.20;100457.44;5055274;28;70192;-50
2023/06/26 11:25:26;;;;;;;6.85;4.97;;;;;;;33.80;61.89;100489.47;5056859;28;65247;-49
2023/06/26 11:27:58;;;;;;;8.35;4.85;;;;;;;33.75;61.34;100485.84;5058678;28;69626;-48
2023/06/26 11:30:30;;;;;;;5.95;5.40;;;;;;;33.77;61.82;100495.41;5060121;28;65536;-49
2023/06/26 11:33:04;;;;;;;;;;;;;;;33.47;62.98;100503.06;5008483;28;70155;-50
2023/06/26 11:35:37;;;;;;;5.25;4.85;;;;;;;33.69;62.08;100495.84;5055874;28;66519;-48
2023/06/26 11:38:08;;;;;;;8.35;4.97;;;;;;;33.73;62.21;100502.41;5058167;28;69613;-48
2023/06/26 11:40:39;;;;;;;6.18;5.68;;;;;;;33.71;62.22;100515.47;5061625;28;66379;-49
2023/06/26 11:43:11;;;;;;;6.00;5.60;;;;;;;33.72;62.11;100517.09;5057440;28;69813;-49
2023/06/26 11:45:42;;;;;;;7.35;5.53;;;;;;;33.69;62.17;100523.03;5058787;28;66459;-46
2023/06/26 11:48:14;;;;;;;9.55;5.65;;;;;;;33.51;62.24;100496.03;5056003;28;69380;-48
2023/06/26 11:50:45;;;;;;;7.93;6.15;;;;;;;33.63;62.39;100518.59;5061156;28;65447;-49
2023/06/26 11:53:16;;;;;;;6.68;6.07;;;;;;;33.56;62.15;100515.19;5061209;28;69800;-47